createdAt,value
2023-05-10T00:01:34.280Z,13.01
2023-05-10T00:04:03.627Z,13.06
2023-05-10T00:06:32.452Z,12.99
2023-05-10T00:09:00.399Z,12.97
2023-05-10T00:11:28.351Z,12.88
2023-05-10T00:13:56.331Z,12.83
2023-05-10T00:16:24.354Z,12.82
2023-05-10T00:18:52.286Z,12.76
2023-05-10T00:21:22.021Z,12.72
2023-05-10T00:23:49.799Z,12.69
2023-05-10T00:26:18.101Z,12.68
2023-05-10T00:28:46.048Z,12.66
2023-05-10T00:31:15.607Z,12.63
2023-05-10T00:33:43.499Z,12.60
2023-05-10T00:36:11.429Z,12.63
2023-05-10T00:38:41.405Z,12.61
2023-05-10T00:41:09.488Z,12.63
2023-05-10T00:43:37.509Z,12.57
2023-05-10T00:46:06.846Z,12.50
2023-05-10T00:48:35.188Z,12.46
2023-05-10T00:51:03.561Z,12.38
2023-05-10T00:53:34.193Z,12.42
2023-05-10T00:56:04.167Z,12.36
2023-05-10T00:58:32.177Z,12.29
2023-05-10T01:01:01.970Z,12.31
2023-05-10T01:03:30.440Z,12.32
2023-05-10T01:05:58.644Z,12.29
2023-05-10T01:08:28.780Z,12.23
2023-05-10T01:10:57.476Z,12.17
2023-05-10T01:13:35.326Z,12.13
2023-05-10T01:16:04.311Z,12.19
2023-05-10T01:18:36.629Z,12.08
2023-05-10T01:21:19.678Z,12.00
2023-05-10T01:24:35.977Z,11.96
2023-05-10T01:27:49.775Z,11.99
2023-05-10T01:31:20.502Z,11.90
2023-05-10T01:33:59.847Z,11.81
2023-05-10T01:36:34.881Z,11.87
2023-05-10T01:39:13.783Z,11.73
2023-05-10T01:41:53.064Z,11.82
2023-05-10T01:44:39.695Z,11.79
2023-05-10T01:47:13.476Z,11.71
2023-05-10T01:49:51.975Z,11.72
2023-05-10T01:52:32.209Z,11.67
2023-05-10T01:55:06.858Z,11.70
2023-05-10T01:57:37.838Z,11.66
2023-05-10T02:00:09.646Z,11.62
2023-05-10T02:02:44.182Z,11.62
2023-05-10T02:05:16.628Z,11.59
2023-05-10T02:07:46.465Z,11.56
2023-05-10T02:10:16.496Z,11.50
2023-05-10T02:12:49.655Z,11.46
2023-05-10T02:15:25.595Z,11.49
2023-05-10T02:17:57.400Z,11.50
2023-05-10T02:20:29.000Z,11.51
2023-05-10T02:22:59.881Z,11.45
2023-05-10T02:25:30.839Z,11.41
2023-05-10T02:28:03.639Z,11.35
2023-05-10T02:30:34.607Z,11.28
2023-05-10T02:33:05.942Z,11.30
2023-05-10T02:35:38.019Z,11.26
2023-05-10T02:38:08.501Z,11.24
2023-05-10T02:40:39.905Z,11.24
2023-05-10T02:43:14.134Z,11.22
2023-05-10T02:45:45.121Z,11.22
2023-05-10T02:48:13.367Z,11.16
2023-05-10T02:50:47.694Z,11.10
2023-05-10T02:53:22.973Z,11.07
2023-05-10T02:55:55.909Z,11.09
2023-05-10T02:58:24.045Z,11.10
2023-05-10T03:00:51.962Z,11.08
2023-05-10T03:03:20.192Z,11.07
2023-05-10T03:05:49.547Z,11.02
2023-05-10T03:08:17.532Z,10.91
2023-05-10T03:11:03.816Z,10.98
2023-05-10T03:13:41.638Z,10.93
2023-05-10T03:16:17.597Z,10.94
2023-05-10T03:18:54.454Z,10.98
2023-05-10T03:21:30.669Z,10.87
2023-05-10T03:24:09.726Z,10.85
2023-05-10T03:26:40.841Z,10.84
2023-05-10T03:29:10.706Z,10.82
2023-05-10T03:31:38.847Z,10.79
2023-05-10T03:34:07.151Z,10.83
2023-05-10T03:36:37.082Z,10.86
2023-05-10T03:39:05.034Z,10.85
2023-05-10T03:41:32.988Z,10.86
2023-05-10T03:44:01.005Z,10.90
2023-05-10T03:46:29.050Z,11.00
2023-05-10T03:48:57.210Z,11.01
2023-05-10T03:51:28.907Z,11.09
2023-05-10T03:54:00.027Z,11.52
2023-05-10T03:56:27.922Z,12.21
2023-05-10T03:58:56.035Z,12.65
2023-05-10T04:01:24.008Z,13.23
2023-05-10T04:03:52.074Z,13.24
2023-05-10T04:06:20.157Z,13.54
2023-05-10T04:08:48.170Z,13.92
2023-05-10T04:11:17.784Z,13.77
2023-05-10T04:13:45.823Z,13.83
2023-05-10T04:16:13.893Z,14.29
2023-05-10T04:18:41.874Z,14.48
2023-05-10T04:21:14.509Z,14.68
2023-05-10T04:23:43.191Z,14.81
2023-05-10T04:26:11.208Z,15.24
2023-05-10T04:28:40.543Z,15.32
2023-05-10T04:31:11.568Z,15.23
2023-05-10T04:33:39.911Z,15.25
2023-05-10T04:36:08.519Z,15.26
2023-05-10T04:38:36.819Z,15.41
2023-05-10T04:41:09.341Z,16.00
2023-05-10T04:43:37.748Z,16.06
2023-05-10T04:46:08.100Z,16.10
2023-05-10T04:48:36.355Z,16.35
2023-05-10T04:51:05.811Z,16.39
2023-05-10T04:53:33.854Z,16.23
2023-05-10T04:56:01.867Z,16.35
2023-05-10T04:58:29.934Z,16.73
2023-05-10T05:00:57.874Z,16.66
2023-05-10T05:03:30.012Z,16.69
2023-05-10T05:05:58.216Z,15.85
2023-05-10T05:08:26.319Z,14.72
2023-05-10T05:10:54.376Z,14.45
2023-05-10T05:13:22.484Z,15.33
2023-05-10T05:15:50.686Z,16.09
2023-05-10T05:18:18.678Z,16.22
2023-05-10T05:20:48.036Z,15.76
2023-05-10T05:23:16.025Z,14.94
2023-05-10T05:25:44.088Z,14.20
2023-05-10T05:28:12.051Z,14.06
2023-05-10T05:30:40.019Z,14.09
2023-05-10T05:33:08.068Z,13.90
2023-05-10T05:35:36.033Z,13.82
2023-05-10T05:38:05.478Z,13.90
2023-05-10T05:40:33.505Z,13.85
2023-05-10T05:43:01.447Z,13.85
2023-05-10T05:45:29.585Z,13.94
2023-05-10T05:47:57.632Z,14.06
2023-05-10T05:50:25.588Z,13.96
2023-05-10T05:52:53.517Z,14.09
2023-05-10T05:55:22.908Z,14.14
2023-05-10T05:57:50.946Z,14.14
2023-05-10T06:00:19.533Z,14.22
2023-05-10T06:02:47.589Z,14.30
2023-05-10T06:05:16.520Z,14.37
2023-05-10T06:07:44.732Z,14.46
2023-05-10T06:10:12.736Z,14.38
2023-05-10T06:12:42.097Z,14.58
2023-05-10T06:15:12.037Z,14.64
2023-05-10T06:17:40.070Z,14.79
2023-05-10T06:20:10.141Z,14.74
2023-05-10T06:22:38.067Z,14.74
2023-05-10T06:25:09.634Z,14.79
2023-05-10T06:27:37.504Z,14.84
2023-05-10T06:30:13.303Z,14.97
2023-05-10T06:32:41.878Z,14.90
2023-05-10T06:35:11.299Z,14.84
2023-05-10T06:37:39.281Z,15.04
2023-05-10T06:40:10.043Z,15.16
2023-05-10T06:42:39.441Z,15.11
2023-05-10T06:45:11.194Z,15.29
2023-05-10T06:47:39.531Z,15.37
2023-05-10T06:50:13.951Z,15.43
2023-05-10T06:52:44.503Z,15.40
2023-05-10T06:55:13.906Z,15.55
2023-05-10T06:57:43.831Z,15.53
2023-05-10T07:00:14.896Z,15.58
2023-05-10T07:02:44.263Z,15.44
2023-05-10T07:05:14.598Z,15.44
2023-05-10T07:07:44.148Z,15.64
2023-05-10T07:10:13.392Z,15.55
2023-05-10T07:12:43.334Z,15.68
2023-05-10T07:15:15.328Z,15.77
2023-05-10T07:17:50.229Z,16.00
2023-05-10T07:20:21.821Z,15.96
2023-05-10T07:22:51.028Z,16.02
2023-05-10T07:25:20.526Z,16.02
2023-05-10T07:27:50.766Z,16.04
2023-05-10T07:30:20.599Z,15.94
2023-05-10T07:32:48.407Z,16.11
2023-05-10T07:35:16.725Z,16.30
2023-05-10T07:37:44.777Z,16.33
2023-05-10T07:40:13.227Z,16.43
2023-05-10T07:42:41.156Z,16.53
2023-05-10T07:45:12.139Z,16.50
2023-05-10T07:47:44.758Z,16.51
2023-05-10T07:50:14.382Z,16.51
2023-05-10T07:52:44.123Z,16.57
2023-05-10T07:55:13.759Z,16.45
2023-05-10T07:57:45.191Z,16.68
2023-05-10T08:00:22.562Z,16.85
2023-05-10T08:02:54.271Z,16.74
2023-05-10T08:05:23.499Z,16.87
2023-05-10T08:07:53.207Z,16.85
2023-05-10T08:10:22.611Z,17.05
2023-05-10T08:12:51.694Z,17.20
2023-05-10T08:15:21.321Z,17.31
2023-05-10T08:17:51.646Z,17.57
2023-05-10T08:20:20.860Z,17.53
2023-05-10T08:22:51.183Z,17.72
2023-05-10T08:25:20.166Z,17.87
2023-05-10T08:27:48.233Z,17.81
2023-05-10T08:30:16.231Z,17.93
2023-05-10T08:32:44.257Z,17.88
2023-05-10T08:35:13.688Z,17.89
2023-05-10T08:37:41.619Z,17.96
2023-05-10T08:40:13.798Z,18.02
2023-05-10T08:42:49.223Z,18.06
2023-05-10T08:45:19.715Z,18.01
2023-05-10T08:47:48.725Z,18.14
2023-05-10T08:50:22.846Z,18.26
2023-05-10T08:52:56.366Z,18.48
2023-05-10T08:55:25.418Z,18.24
2023-05-10T08:57:53.629Z,18.13
2023-05-10T09:00:24.034Z,18.27
2023-05-10T09:02:53.086Z,18.66
2023-05-10T09:05:22.543Z,18.70
2023-05-10T09:07:50.439Z,18.73
2023-05-10T09:10:21.838Z,18.77
2023-05-10T09:12:51.199Z,18.90
2023-05-10T09:15:20.936Z,18.91
2023-05-10T09:17:50.679Z,19.10
2023-05-10T09:20:19.346Z,18.92
2023-05-10T09:22:48.702Z,18.92
2023-05-10T09:25:19.054Z,19.02
2023-05-10T09:27:49.564Z,19.26
2023-05-10T09:30:20.156Z,19.39
2023-05-10T09:32:51.129Z,19.18
2023-05-10T09:35:21.773Z,19.18
2023-05-10T09:37:54.729Z,19.20
2023-05-10T09:40:24.916Z,19.37
2023-05-10T09:42:58.116Z,19.51
2023-05-10T09:45:28.400Z,19.73
2023-05-10T09:47:57.451Z,19.68
2023-05-10T09:50:26.171Z,19.55
2023-05-10T09:52:59.322Z,19.73
2023-05-10T09:55:40.027Z,20.00
2023-05-10T09:58:11.532Z,19.95
2023-05-10T10:00:41.559Z,20.03
2023-05-10T10:03:16.173Z,20.10
2023-05-10T10:05:45.973Z,19.89
2023-05-10T10:08:16.184Z,19.96
2023-05-10T10:10:46.300Z,20.00
2023-05-10T10:13:15.576Z,19.98
2023-05-10T10:15:45.211Z,20.09
2023-05-10T10:18:16.385Z,19.99
2023-05-10T10:20:44.792Z,20.14
2023-05-10T10:23:13.187Z,19.97
2023-05-10T10:25:45.374Z,20.07
2023-05-10T10:28:28.912Z,20.08
2023-05-10T10:31:03.464Z,20.13
2023-05-10T10:33:58.715Z,20.42
2023-05-10T10:36:28.170Z,20.39
2023-05-10T10:39:05.002Z,20.58
2023-05-10T10:41:36.345Z,20.72
2023-05-10T10:44:45.656Z,20.91
2023-05-10T10:47:28.398Z,20.70
2023-05-10T10:50:07.214Z,20.68
2023-05-10T10:52:37.271Z,20.71
2023-05-10T10:55:09.210Z,20.71
2023-05-10T10:57:49.372Z,20.96
2023-05-10T11:00:32.552Z,20.95
2023-05-10T11:03:05.259Z,21.24
2023-05-10T11:05:41.111Z,21.48
2023-05-10T11:08:15.678Z,21.43
2023-05-10T11:10:54.306Z,21.42
2023-05-10T11:13:35.120Z,21.21
2023-05-10T11:16:17.695Z,21.29
2023-05-10T11:19:10.994Z,21.39
2023-05-10T11:21:48.999Z,21.34
2023-05-10T11:24:19.667Z,21.53
2023-05-10T11:26:47.991Z,21.69
2023-05-10T11:29:18.410Z,21.69
2023-05-10T11:31:47.994Z,21.62
2023-05-10T11:34:26.779Z,21.80
2023-05-10T11:36:56.339Z,21.50
2023-05-10T11:39:29.704Z,21.56
2023-05-10T11:41:58.528Z,21.83
2023-05-10T11:44:32.817Z,21.89
2023-05-10T11:47:01.836Z,21.85
2023-05-10T11:49:30.628Z,22.11
2023-05-10T11:52:07.178Z,22.36
2023-05-10T11:54:35.968Z,22.19
2023-05-10T11:57:04.147Z,22.06
2023-05-10T11:59:33.573Z,22.29
2023-05-10T12:02:01.970Z,22.33
2023-05-10T12:04:30.450Z,22.42
2023-05-10T12:06:59.028Z,22.41
2023-05-10T12:09:39.701Z,22.80
2023-05-10T12:12:11.076Z,22.53
2023-05-10T12:14:40.346Z,22.57
2023-05-10T12:17:08.895Z,22.70
2023-05-10T12:19:40.427Z,22.77
2023-05-10T12:22:08.474Z,22.54
2023-05-10T12:24:37.144Z,22.49
2023-05-10T12:27:09.019Z,22.44
2023-05-10T12:29:37.077Z,22.70
2023-05-10T12:32:06.436Z,22.74
2023-05-10T12:34:37.055Z,22.66
2023-05-10T12:37:06.226Z,22.47
2023-05-10T12:39:42.525Z,22.66
2023-05-10T12:42:11.063Z,22.63
2023-05-10T12:44:39.040Z,22.74
2023-05-10T12:47:08.309Z,22.73
2023-05-10T12:49:36.373Z,22.87
2023-05-10T12:52:04.529Z,22.77
2023-05-10T12:54:32.523Z,22.95
2023-05-10T12:57:00.933Z,22.83
2023-05-10T12:59:28.860Z,22.99
2023-05-10T13:01:56.802Z,23.08
2023-05-10T13:04:26.228Z,23.05
2023-05-10T13:06:56.450Z,23.04
2023-05-10T13:09:24.341Z,23.11
2023-05-10T13:11:54.359Z,23.30
2023-05-10T13:14:22.430Z,23.13
2023-05-10T13:16:50.371Z,23.41
2023-05-10T13:19:19.255Z,22.99
2023-05-10T13:21:49.123Z,23.20
2023-05-10T13:24:17.900Z,23.47
2023-05-10T13:26:45.923Z,23.40
2023-05-10T13:29:13.874Z,23.35
2023-05-10T13:31:41.832Z,23.08
2023-05-10T13:34:09.777Z,23.01
2023-05-10T13:36:37.721Z,23.05
2023-05-10T13:39:07.332Z,23.13
2023-05-10T13:41:35.286Z,23.38
2023-05-10T13:44:03.268Z,23.36
2023-05-10T13:46:31.936Z,23.56
2023-05-10T13:48:59.976Z,23.42
2023-05-10T13:51:27.880Z,23.34
2023-05-10T13:53:55.793Z,23.42
2023-05-10T13:56:25.396Z,23.64
2023-05-10T13:58:53.420Z,23.76
2023-05-10T14:01:21.499Z,24.05
2023-05-10T14:03:49.695Z,23.87
2023-05-10T14:06:17.696Z,24.12
2023-05-10T14:08:45.715Z,24.24
2023-05-10T14:11:13.868Z,24.30
2023-05-10T14:13:43.461Z,23.93
2023-05-10T14:16:11.772Z,24.22
2023-05-10T14:18:39.979Z,24.34
2023-05-10T14:21:07.982Z,24.23
2023-05-10T14:23:35.955Z,23.88
2023-05-10T14:26:03.950Z,23.63
2023-05-10T14:28:31.921Z,23.90
2023-05-10T14:31:01.227Z,24.61
2023-05-10T14:33:29.246Z,24.65
2023-05-10T14:35:58.432Z,24.62
2023-05-10T14:38:26.443Z,24.31
2023-05-10T14:40:54.318Z,23.79
2023-05-10T14:43:22.320Z,23.44
2023-05-10T14:45:50.214Z,23.38
2023-05-10T14:48:19.469Z,24.18
2023-05-10T14:50:48.071Z,25.04
2023-05-10T14:53:15.952Z,25.69
2023-05-10T14:55:44.293Z,25.59
2023-05-10T14:58:12.307Z,24.91
2023-05-10T15:00:40.255Z,24.37
2023-05-10T15:03:08.859Z,23.75
2023-05-10T15:05:38.712Z,23.42
2023-05-10T15:08:06.802Z,23.21
2023-05-10T15:10:35.172Z,23.15
2023-05-10T15:13:03.422Z,23.06
2023-05-10T15:15:31.537Z,22.79
2023-05-10T15:17:59.534Z,22.70
2023-05-10T15:20:27.488Z,22.63
2023-05-10T15:22:56.766Z,22.71
2023-05-10T15:25:25.116Z,22.85
2023-05-10T15:27:53.026Z,23.03
2023-05-10T15:30:21.189Z,22.89
2023-05-10T15:32:49.229Z,22.84
2023-05-10T15:35:18.552Z,23.68
2023-05-10T15:37:48.351Z,24.17
2023-05-10T15:40:17.714Z,24.57
2023-05-10T15:42:45.754Z,24.83
2023-05-10T15:45:13.765Z,25.02
2023-05-10T15:47:41.781Z,25.40
2023-05-10T15:50:12.236Z,25.67
2023-05-10T15:52:40.096Z,25.50
2023-05-10T15:55:13.066Z,24.86
2023-05-10T15:57:44.712Z,24.19
2023-05-10T16:00:14.667Z,23.85
2023-05-10T16:02:43.390Z,23.37
2023-05-10T16:05:11.984Z,23.45
2023-05-10T16:07:40.315Z,23.46
2023-05-10T16:10:11.354Z,23.31
2023-05-10T16:12:39.863Z,23.10
2023-05-10T16:15:10.977Z,22.82
2023-05-10T16:17:38.988Z,22.63
2023-05-10T16:20:08.941Z,22.37
2023-05-10T16:22:37.075Z,22.06
2023-05-10T16:25:05.964Z,21.84
2023-05-10T16:27:34.340Z,21.44
2023-05-10T16:30:03.021Z,21.80
2023-05-10T16:32:32.346Z,21.84
2023-05-10T16:35:00.468Z,21.78
2023-05-10T16:37:29.780Z,22.11
2023-05-10T16:39:57.677Z,21.80
2023-05-10T16:42:28.851Z,21.65
2023-05-10T16:44:56.719Z,21.89
2023-05-10T16:47:26.733Z,21.56
2023-05-10T16:49:56.177Z,21.03
2023-05-10T16:52:24.446Z,20.72
2023-05-10T16:54:52.417Z,20.85
2023-05-10T16:57:20.413Z,21.12
2023-05-10T16:59:48.378Z,21.02
2023-05-10T17:02:16.811Z,21.16
2023-05-10T17:04:44.946Z,20.87
2023-05-10T17:07:14.656Z,20.68
2023-05-10T17:09:43.306Z,20.40
2023-05-10T17:12:11.418Z,20.37
2023-05-10T17:14:40.018Z,20.04
2023-05-10T17:17:08.283Z,19.94
2023-05-10T17:19:36.335Z,19.72
2023-05-10T17:22:04.527Z,19.63
2023-05-10T17:24:33.848Z,19.52
2023-05-10T17:27:03.530Z,19.42
2023-05-10T17:29:31.995Z,19.41
2023-05-10T17:32:00.167Z,19.40
2023-05-10T17:34:28.086Z,19.29
2023-05-10T17:36:55.995Z,19.10
2023-05-10T17:39:24.084Z,19.07
2023-05-10T17:41:53.425Z,18.96
2023-05-10T17:44:21.473Z,18.97
2023-05-10T17:46:49.403Z,18.88
2023-05-10T17:49:17.315Z,18.82
2023-05-10T17:51:47.898Z,18.68
2023-05-10T17:54:16.123Z,18.64
2023-05-10T17:56:44.201Z,18.61
2023-05-10T17:59:13.578Z,18.65
2023-05-10T18:01:42.306Z,18.56
2023-05-10T18:04:10.339Z,18.48
2023-05-10T18:06:39.187Z,18.45
2023-05-10T18:09:07.463Z,18.29
2023-05-10T18:11:38.032Z,18.39
2023-05-10T18:14:06.065Z,18.29
2023-05-10T18:16:35.472Z,18.26
2023-05-10T18:19:04.393Z,18.24
2023-05-10T18:21:32.718Z,18.10
2023-05-10T18:24:01.494Z,18.10
2023-05-10T18:26:29.989Z,18.05
2023-05-10T18:28:59.459Z,18.03
2023-05-10T18:31:30.320Z,17.97
2023-05-10T18:34:06.860Z,17.94
2023-05-10T18:36:35.616Z,17.83
2023-05-10T18:39:03.983Z,17.70
2023-05-10T18:41:32.222Z,17.66
2023-05-10T18:44:00.260Z,17.75
2023-05-10T18:46:28.498Z,17.66
2023-05-10T18:48:56.715Z,17.53
2023-05-10T18:51:32.748Z,17.58
2023-05-10T18:54:07.319Z,17.74
2023-05-10T18:56:35.415Z,17.66
2023-05-10T19:00:04.616Z,17.60
2023-05-10T19:02:32.942Z,17.44
2023-05-10T19:05:03.719Z,17.43
2023-05-10T19:07:34.432Z,17.36
2023-05-10T19:10:06.361Z,17.27
2023-05-10T19:12:41.868Z,17.21
2023-05-10T19:15:11.680Z,17.25
2023-05-10T19:17:42.130Z,17.12
2023-05-10T19:20:12.699Z,17.13
2023-05-10T19:22:57.950Z,17.01
2023-05-10T19:25:30.602Z,16.95
2023-05-10T19:27:58.807Z,16.89
2023-05-10T19:30:30.480Z,16.86
2023-05-10T19:32:59.085Z,16.87
2023-05-10T19:35:27.121Z,16.83
2023-05-10T19:37:56.643Z,16.82
2023-05-10T19:40:24.662Z,16.79
2023-05-10T19:42:53.104Z,16.67
2023-05-10T19:45:21.528Z,16.64
2023-05-10T19:47:49.882Z,16.62
2023-05-10T19:50:18.060Z,16.52
2023-05-10T19:52:46.693Z,16.59
2023-05-10T19:55:27.964Z,16.67
2023-05-10T19:57:56.119Z,16.52
2023-05-10T20:00:25.087Z,16.49
2023-05-10T20:02:53.016Z,16.38
2023-05-10T20:05:21.138Z,16.42
2023-05-10T20:07:49.215Z,16.29
2023-05-10T20:10:19.578Z,16.11
2023-05-10T20:12:51.611Z,15.98
2023-05-10T20:15:20.984Z,15.89
2023-05-10T20:17:51.309Z,15.82
2023-05-10T20:23:06.936Z,15.66
2023-05-10T20:25:36.489Z,15.54
2023-05-10T20:28:05.744Z,15.54
2023-05-10T20:30:33.750Z,15.35
2023-05-10T20:33:01.946Z,15.27
2023-05-10T20:35:29.893Z,15.34
2023-05-10T20:37:57.949Z,15.34
2023-05-10T20:40:25.889Z,15.35
2023-05-10T20:42:55.309Z,15.25
2023-05-10T20:45:23.323Z,15.21
2023-05-10T20:47:51.352Z,15.25
2023-05-10T20:50:19.451Z,15.25
2023-05-10T20:52:47.906Z,15.23
2023-05-10T20:55:16.026Z,15.19
2023-05-10T20:57:43.994Z,15.22
2023-05-10T21:00:15.166Z,15.23
2023-05-10T21:02:45.624Z,15.19
2023-05-10T21:05:14.438Z,15.12
2023-05-10T21:07:42.354Z,15.11
2023-05-10T21:10:12.388Z,15.11
2023-05-10T21:12:40.301Z,15.05
2023-05-10T21:15:10.138Z,15.10
2023-05-10T21:17:39.196Z,15.19
2023-05-10T21:20:09.239Z,15.04
2023-05-10T21:22:37.585Z,15.12
2023-05-10T21:25:06.688Z,15.16
2023-05-10T21:27:35.247Z,15.12
2023-05-10T21:30:03.204Z,15.14
2023-05-10T21:32:31.379Z,15.03
2023-05-10T21:35:00.756Z,15.03
2023-05-10T21:37:28.623Z,14.99
2023-05-10T21:39:56.578Z,15.02
2023-05-10T21:42:24.608Z,15.06
2023-05-10T21:44:52.807Z,14.84
2023-05-10T21:47:20.873Z,14.76
2023-05-10T21:49:50.444Z,14.74
2023-05-10T21:52:19.696Z,14.74
2023-05-10T21:54:47.648Z,14.83
2023-05-10T21:57:15.595Z,14.77
2023-05-10T21:59:43.557Z,14.80
2023-05-10T22:02:11.753Z,14.81
2023-05-10T22:04:39.734Z,15.17
2023-05-10T22:07:09.306Z,15.25
2023-05-10T22:09:38.567Z,15.29
2023-05-10T22:12:06.881Z,15.31
2023-05-10T22:14:34.815Z,15.30
2023-05-10T22:17:02.747Z,15.32
2023-05-10T22:19:30.945Z,15.19
2023-05-10T22:21:58.798Z,15.10
2023-05-10T22:24:26.987Z,15.15
2023-05-10T22:26:56.916Z,15.09
2023-05-10T22:29:25.139Z,15.33
2023-05-10T22:31:53.069Z,15.37
2023-05-10T22:34:20.952Z,15.54
2023-05-10T22:36:50.243Z,15.38
2023-05-10T22:39:18.294Z,15.17
2023-05-10T22:41:46.557Z,15.12
2023-05-10T22:44:15.840Z,15.38
2023-05-10T22:46:43.832Z,15.28
2023-05-10T22:49:12.195Z,14.93
2023-05-10T22:51:40.213Z,14.82
2023-05-10T22:54:08.144Z,14.84
2023-05-10T22:56:36.352Z,14.71
2023-05-10T22:59:04.328Z,14.68
2023-05-10T23:01:33.663Z,14.67
2023-05-10T23:04:01.611Z,14.67
2023-05-10T23:06:29.549Z,14.76
2023-05-10T23:08:57.392Z,14.64
2023-05-10T23:11:25.558Z,14.64
2023-05-10T23:13:53.451Z,14.57
2023-05-10T23:16:21.439Z,14.63
2023-05-10T23:18:50.927Z,14.71
2023-05-10T23:21:18.879Z,14.93
2023-05-10T23:23:46.866Z,14.85
2023-05-10T23:26:14.837Z,14.84
2023-05-10T23:28:42.747Z,14.74
2023-05-10T23:31:10.656Z,14.61
2023-05-10T23:33:38.618Z,14.58
2023-05-10T23:36:08.761Z,14.57
2023-05-10T23:38:36.694Z,14.41
2023-05-10T23:41:05.184Z,14.41
2023-05-10T23:43:33.023Z,14.29
2023-05-10T23:46:01.565Z,14.27
2023-05-10T23:48:29.557Z,14.42
2023-05-10T23:50:57.402Z,14.33
2023-05-10T23:53:27.026Z,14.33
2023-05-10T23:55:54.862Z,14.35
2023-05-10T23:58:22.747Z,14.28
